Aviation Digital Data Service (ADDS)

Output produced by METARs form (2038 UTC 13 August 2020)
found at http://aviationweather.gov/metar/data/
 
KBOS 132022Z 1320/1424 11010KT P6SM FEW070 
     FM140600 35004KT P6SM FEW250 
     FM141400 05005KT P6SM SCT250
       
KLGA 132032Z 1321/1424 08005KT P6SM VCSH FEW020 BKN070 OVC150 
     FM140300 VRB04KT P6SM SCT070 BKN150 
     TEMPO 1408/1412 1SM BR BKN010 
     FM141200 05004KT 3SM BR VCSH SCT005 BKN030 BKN150 
     FM141600 08008KT P6SM SCT030 BKN045
       
KEWR 132032Z 1321/1424 06005KT P6SM VCSH SCT035 BKN070 OVC250 
     FM140000 VRB04KT P6SM BKN150 
     FM141000 VRB04KT P6SM SCT005 BKN150 
     FM141700 07007KT P6SM SCT025 BKN045
       
KJFK 132032Z 1321/1424 05005KT P6SM VCSH FEW017 SCT040 OVC150 
     FM132200 16005KT P6SM SCT070 BKN150 
     TEMPO 1408/1412 1SM BR BKN010 
     FM141200 05004KT 3SM BR VCSH SCT005 BKN030 BKN150 
     FM141600 08008KT P6SM SCT030 BKN045
       
KPHL 132008Z 1320/1424 12006KT P6SM -SHRA SCT025 OVC080 
     FM132200 10005KT P6SM SCT025 BKN050 
     FM140500 VRB04KT 5SM BR SCT010 
     TEMPO 1408/1411 2SM BR BKN010 
     FM141300 05008KT P6SM BKN025 
     FM141700 06008KT P6SM SCT025 BKN080
       
KIAD 132001Z 1320/1424 08006KT P6SM BKN040 
     TEMPO 1320/1322 11005KT P6SM BKN025 
     FM140200 08004KT P6SM BKN025 
     FM140600 04004KT P6SM BKN015 
     FM141800 05007KT P6SM OVC035
       
KBWI 131903Z 1319/1424 01003KT P6SM BKN030 
     FM132100 08006KT P6SM BKN050 
     FM140400 07004KT P6SM BKN020 
     FM140700 05004KT P6SM OVC015 
     FM141700 06008KT P6SM BKN035
       
KDCA 131746Z 1318/1424 36007KT P6SM FEW020 BKN120 
     FM140300 07005KT P6SM BKN030 
     FM140600 05004KT P6SM BKN015 
     FM141600 06007KT P6SM BKN035
       
KCLT 131949Z 1320/1424 17006KT P6SM VCSH SCT025 BKN035 
     TEMPO 1320/1322 VRB15G30KT 3SM TSRA BR BKN025CB 
     FM132200 08003KT P6SM VCSH SCT050 OVC250 
     FM140200 08003KT P6SM SCT024 BKN050 
     FM140900 05002KT P6SM BKN010 
     FM141400 10003KT P6SM SCT040 
     PROB30 1416/1422 4SM TSRA BR BKN025CB 
     FM142200 10003KT P6SM VCSH SCT050
       
KATL 131959Z 1320/1424 26007KT P6SM VCSH FEW050 FEW100 SCT250 
     TEMPO 1322/1402 VRB15G25KT 4SM TSRA SCT015 BKN030CB 
     FM140200 25005KT P6SM SHRA SCT035 BKN050 
     FM140900 VRB03KT P6SM BKN018 
     FM141000 VRB03KT P6SM BKN008 
     FM141200 00000KT P6SM BKN015 
     FM141700 21005KT P6SM BKN025
       
KMCO 131743Z 1318/1424 27011KT P6SM VCTS SCT035CB SCT080 BKN200 
     TEMPO 1319/1322 26012G25KT 3SM TSRA BKN030CB BKN060 
     FM140100 VRB04KT P6SM FEW040 SCT100 BKN250 
     FM140400 VRB02KT P6SM SCT250 
     FM141400 18005KT P6SM FEW035 SCT250 
     FM141700 20011KT P6SM VCTS SCT035CB SCT080 BKN200
       
KTPA 131740Z 1318/1424 23007KT P6SM VCTS SCT040CB BKN180 BKN250 
     FM132100 27007KT P6SM VCTS SCT040CB BKN180 BKN250 
     TEMPO 1321/1323 VRB15G25KT 4SM TSRA BKN040CB BKN250 
     FM140100 VRB03KT P6SM FEW030 BKN250 
     FM141500 21007KT P6SM FEW030 BKN250
       
KFLL 131736Z 1318/1424 12008KT P6SM FEW030 FEW250 
     FM140100 13005KT P6SM FEW025 FEW250 
     FM141700 12009KT P6SM FEW035 FEW150
       
KMIA 131736Z 1318/1424 12008KT P6SM FEW035 FEW250 
     FM140300 12005KT P6SM FEW030 FEW250 
     FM141700 12009KT P6SM FEW035 FEW200
       
KDTW 131721Z 1318/1424 10005KT P6SM SCT250 
     FM140200 04005KT P6SM SCT250 
     FM141400 10005KT P6SM SCT060
       
KMSP 131739Z 1318/1424 17009KT P6SM BKN025 
     FM132000 17012G19KT P6SM SCT030 SCT120 
     FM140400 15006KT P6SM SCT040 BKN120 
     PROB30 1408/1412 3SM -TSRA BR BKN030CB 
     FM141200 13008KT P6SM BKN025 
     FM141500 16010G18KT P6SM BKN040 
     FM141800 17012G21KT P6SM SCT040 SCT120
       
KORD 131722Z 1318/1424 07008KT P6SM FEW040 SCT250
       
KMDW 131722Z 1318/1424 07008KT P6SM FEW040 SCT250
       
KMEM 131724Z 1318/1424 15005KT P6SM VCTS SCT040CB BKN070 
     FM140200 VRB03KT P6SM SCT050 
     FM141000 VRB03KT 3SM BR BKN010 
     FM141500 30006KT P6SM SCT025 
     FM141900 32007KT P6SM VCSH BKN040
       
KDFW 131724Z 1318/1424 19012KT P6SM FEW250
       
KIAH 131730Z 1318/1424 21007KT P6SM FEW040 
     FM132100 17008KT P6SM SCT250 
     FM140800 21004KT P6SM FEW250 
     FM141500 23009KT P6SM FEW030 
     FM142100 17008KT P6SM SCT250
       
KDEN 131728Z 1318/1424 VRB05KT P6SM FEW080 
     FM140000 33009KT P6SM FEW080 FEW150 
     FM140200 07008KT P6SM SCT150 
     FM140500 20010KT P6SM SKC 
     FM141700 04010KT P6SM FEW100 FEW150
       
KSLC 132035Z 1321/1424 34010G18KT P6SM FEW110 
     FM140000 35008KT P6SM FEW180 
     FM140400 15006KT P6SM SKC 
     FM141700 31009KT P6SM SKC
       
KSEA 131731Z 1318/1424 VRB05KT P6SM FEW020 SCT250 
     FM132000 27005KT P6SM SCT250 
     FM140100 31008KT P6SM SCT250 
     FM140900 VRB03KT P6SM SKC
       
KSFO 131721Z 1318/1424 35007KT P6SM FEW010 FEW200 
     FM132100 29018KT P6SM FEW100 SCT150 
     FM140400 30012KT P6SM FEW100 SCT150 
     FM140700 30007KT P6SM FEW100 SCT200 
     FM141100 VRB05KT P6SM FEW100 SCT200 
     FM141600 36006KT P6SM SCT200 
     FM142100 30015KT P6SM SCT200
       
KLAX 131746Z 1318/1424 00000KT P6SM VCSH FEW070 BKN120 
     FM131900 26012KT P6SM BKN120 
     FM140300 26006KT P6SM SCT150 
     FM140900 VRB03KT P6SM SCT150 
     FM141700 23006KT P6SM SCT150 
     FM142000 26010KT P6SM SCT150
       
KSAN 132036Z 1321/1424 28009KT P6SM BKN250 
     FM140300 VRB04KT P6SM SCT200 
     FM141200 VRB04KT P6SM SCT005 SCT200 
     FM141900 28010KT P6SM SCT250
       
KLAS 131727Z 1318/1424 08006KT P6SM SCT150 BKN250 
     FM132000 21010G18KT P6SM BKN150 BKN250 
     FM140300 20009KT P6SM SCT150 BKN250 
     FM141300 VRB05KT P6SM FEW150 FEW250
       
KPHX 132031Z 1321/1424 28008KT P6SM FEW150 FEW250 
     FM132300 25010G16KT P6SM SCT150 
     FM140300 21007KT P6SM SCT150 
     FM140900 10005KT P6SM SCT250 
     FM141900 26008KT P6SM SCT250
       
KSDF 131947Z 1320/1424 VRB10G20KT 6SM TSRA BKN030CB OVC100 
     TEMPO 1320/1321 2SM TSRA BKN025CB OVC050 
     FM132200 VRB04KT P6SM VCTS SCT050CB BKN150 
     FM132300 VRB03KT P6SM BKN200 
     FM140600 VRB03KT P6SM VCSH SCT050 BKN150 
     FM141300 05006KT P6SM VCSH SCT045 BKN200
       
KIND 132021Z 1320/1424 05006KT P6SM SCT035 BKN100 
     FM140200 05004KT P6SM BKN200 
     FM141500 08004KT P6SM FEW050 BKN120
       
KCVG 131734Z 1318/1424 06006KT P6SM SCT045 BKN200 
     FM140100 02004KT P6SM FEW060 OVC200 
     FM141000 04005KT P6SM BKN070 OVC180 
     FM141600 06006KT P6SM VCSH BKN060 OVC150 
     FM141800 07007KT P6SM VCTS BKN060CB OVC120 
     TEMPO 1420/1424 -SHRA OVC040